Time;durP1;ratioP1;P1;durP2;ratioP2;P2;SDS_P1;SDS_P2;PMS_P1;PMS_P2;Temp;Humidity;BMP_temperature;BMP_pressure;BME280_temperature;BME280_humidity;BME280_pressure;Samples;Min_cycle;Max_cycle;Signal;HPM_P1;HPM_P2
2022/10/31 18:41:21;;;;;;;20.07;18.40;;;16.60;45.30;;;;;;5006146;28;20570;-52
2022/10/31 18:44:06;;;;;;;21.90;19.70;;;16.50;45.50;;;;;;5134006;27;20602;-51
2022/10/31 18:46:32;;;;;;;19.93;18.50;;;16.30;46.80;;;;;;5101113;28;20617;-50
2022/10/31 18:48:59;;;;;;;19.70;18.07;;;16.40;47.20;;;;;;5103278;28;20776;-51
2022/10/31 18:51:25;;;;;;;19.93;18.17;;;16.40;47.10;;;;;;5102796;28;20902;-50
2022/10/31 18:53:56;;;;;;;22.80;20.93;;;16.50;47.20;;;;;;5101055;28;20400;-48
2022/10/31 18:56:23;;;;;;;22.87;20.67;;;16.50;46.60;;;;;;5090179;28;20411;-50
2022/10/31 18:58:49;;;;;;;21.23;19.60;;;16.50;46.00;;;;;;5083704;28;20775;-48
2022/10/31 19:01:16;;;;;;;23.67;21.93;;;16.60;45.90;;;;;;5098471;28;20404;-48
2022/10/31 19:03:42;;;;;;;21.37;19.50;;;16.70;45.60;;;;;;5083919;28;20463;-49
2022/10/31 19:06:09;;;;;;;20.60;18.53;;;16.70;45.50;;;;;;5081827;28;20428;-53
2022/10/31 19:08:36;;;;;;;21.50;18.70;;;16.70;45.20;;;;;;5085344;28;20506;-48
2022/10/31 19:11:07;;;;;;;20.37;18.57;;;16.70;45.50;;;;;;5101534;28;20478;-47
2022/10/31 19:13:34;;;;;;;21.77;19.77;;;16.70;45.30;;;;;;5102029;28;20923;-51
2022/10/31 19:16:10;;;;;;;19.63;18.13;;;16.60;45.10;;;;;;5090433;28;20428;-52
2022/10/31 19:18:37;;;;;;;21.50;18.63;;;16.60;45.40;;;;;;5099329;28;20475;-50
2022/10/31 19:21:15;;;;;;;18.50;16.73;;;16.60;45.20;;;;;;5099230;28;20501;-50
2022/10/31 19:23:41;;;;;;;17.23;15.60;;;16.70;45.30;;;;;;5081366;28;20974;-55
2022/10/31 19:26:07;;;;;;;17.37;15.70;;;16.60;43.20;;;;;;5095301;27;20430;-56
2022/10/31 19:28:35;;;;;;;16.60;15.40;;;16.60;42.80;;;;;;5100729;28;20435;-54
2022/10/31 19:31:01;;;;;;;16.90;15.40;;;16.60;42.40;;;;;;5099527;28;20177;-52
2022/10/31 19:33:29;;;;;;;15.33;13.80;;;16.60;41.90;;;;;;5103755;28;20834;-54
2022/10/31 19:36:07;;;;;;;15.30;14.03;;;16.60;42.30;;;;;;5103987;28;20427;-54
2022/10/31 19:38:33;;;;;;;16.47;15.20;;;16.70;42.20;;;;;;5103606;28;20422;-55
2022/10/31 19:41:05;;;;;;;15.27;14.37;;;16.70;41.70;;;;;;5102925;28;20422;-55
2022/10/31 19:43:31;;;;;;;16.60;15.13;;;16.70;41.40;;;;;;5104491;28;20465;-55
2022/10/31 19:45:58;;;;;;;17.10;15.50;;;16.50;42.30;;;;;;5104200;28;21434;-54
2022/10/31 19:48:25;;;;;;;17.40;15.73;;;16.50;42.30;;;;;;5102540;28;20535;-55
2022/10/31 19:50:51;;;;;;;15.67;14.47;;;16.60;42.40;;;;;;5101508;28;20440;-54
2022/10/31 19:53:17;;;;;;;16.47;14.80;;;16.60;42.70;;;;;;5101591;28;20740;-54
2022/10/31 19:55:42;;;;;;;16.30;15.00;;;16.70;42.00;;;;;;5089317;28;20409;-53
2022/10/31 19:58:08;;;;;;;15.60;14.40;;;16.70;41.60;;;;;;5088272;28;20431;-55
2022/10/31 20:00:35;;;;;;;15.53;14.10;;;16.80;41.80;;;;;;5087451;28;20265;-55
2022/10/31 20:03:01;;;;;;;14.50;13.37;;;16.80;41.20;;;;;;5089702;28;20604;-55
2022/10/31 20:05:27;;;;;;;15.57;14.37;;;16.80;41.10;;;;;;5088450;28;20430;-54
2022/10/31 20:07:52;;;;;;;16.03;14.80;;;16.80;41.10;;;;;;5090464;28;20626;-54
2022/10/31 20:10:18;;;;;;;16.43;15.17;;;16.90;41.00;;;;;;5089232;28;20181;-53
2022/10/31 20:12:43;;;;;;;15.80;14.37;;;16.90;40.90;;;;;;5089203;28;20188;-51
2022/10/31 20:15:09;;;;;;;17.07;15.80;;;16.90;40.90;;;;;;5089468;28;20189;-56
2022/10/31 20:17:35;;;;;;;16.90;15.60;;;16.90;40.90;;;;;;5090068;28;20272;-55
2022/10/31 20:20:05;;;;;;;17.60;16.20;;;16.90;40.70;;;;;;5090675;28;20178;-55
2022/10/31 20:22:31;;;;;;;16.43;15.23;;;16.90;40.90;;;;;;5090608;28;20220;-53
2022/10/31 20:24:57;;;;;;;16.43;15.23;;;16.90;40.70;;;;;;5088109;28;20432;-50
2022/10/31 20:27:22;;;;;;;17.40;16.03;;;16.80;40.80;;;;;;5089558;28;20178;-49
2022/10/31 20:29:48;;;;;;;21.23;15.50;;;16.80;41.10;;;;;;5088964;28;20205;-51
2022/10/31 20:32:13;;;;;;;18.10;16.40;;;16.80;41.00;;;;;;5089415;28;20188;-49
2022/10/31 20:34:39;;;;;;;17.20;16.00;;;16.80;41.20;;;;;;5089921;28;20181;-52
2022/10/31 20:37:05;;;;;;;17.70;16.30;;;16.80;41.30;;;;;;5088902;28;20638;-51
2022/10/31 20:39:31;;;;;;;17.93;16.73;;;16.80;41.10;;;;;;5090462;28;20629;-49
2022/10/31 20:41:56;;;;;;;18.70;16.97;;;16.80;41.40;;;;;;5088678;28;20228;-47
2022/10/31 20:44:22;;;;;;;17.07;15.63;;;16.80;41.10;;;;;;5088892;28;20174;-49
2022/10/31 20:46:47;;;;;;;18.50;17.00;;;16.80;41.10;;;;;;5089372;28;20181;-50
2022/10/31 20:49:13;;;;;;;17.60;16.10;;;16.80;41.20;;;;;;5088807;28;20264;-49
2022/10/31 20:51:39;;;;;;;17.83;16.10;;;16.80;41.20;;;;;;5088120;28;21058;-48
2022/10/31 20:54:05;;;;;;;16.20;15.00;;;16.80;41.30;;;;;;5089980;28;20222;-52
2022/10/31 20:56:31;;;;;;;16.80;15.37;;;16.80;41.20;;;;;;5089346;28;20181;-49
2022/10/31 20:58:57;;;;;;;17.80;16.40;;;16.70;41.10;;;;;;5089986;28;20515;-50
2022/10/31 21:01:34;;;;;;;16.80;15.50;;;16.80;41.10;;;;;;5090924;28;20238;-47
2022/10/31 21:04:01;;;;;;;15.87;14.67;;;16.80;41.30;;;;;;5089162;28;20462;-48
2022/10/31 21:06:27;;;;;;;16.67;15.47;;;16.70;40.90;;;;;;5089970;28;20891;-47
2022/10/31 21:08:53;;;;;;;15.60;14.60;;;16.70;41.10;;;;;;5086425;28;21617;-50
2022/10/31 21:11:21;;;;;;;15.77;14.67;;;16.70;41.10;;;;;;5082614;28;20428;-51
2022/10/31 21:13:48;;;;;;;16.17;14.87;;;16.60;41.80;;;;;;5070534;28;20190;-53
2022/10/31 21:16:20;;;;;;;16.73;15.43;;;16.60;41.90;;;;;;5085122;28;20527;-49
2022/10/31 21:18:46;;;;;;;17.07;15.67;;;16.60;41.40;;;;;;5070513;28;20775;-49
2022/10/31 21:21:13;;;;;;;16.67;15.27;;;16.60;42.20;;;;;;5069188;28;20770;-49
2022/10/31 21:23:39;;;;;;;16.53;15.17;;;16.60;42.00;;;;;;5067430;28;20455;-51
2022/10/31 21:26:11;;;;;;;16.27;15.27;;;16.60;42.00;;;;;;5072718;28;20427;-50
2022/10/31 21:28:39;;;;;;;15.63;14.53;;;16.60;41.60;;;;;;5073107;28;20492;-49
2022/10/31 21:31:10;;;;;;;16.60;15.20;;;16.60;41.10;;;;;;5083271;28;20435;-49
2022/10/31 21:33:36;;;;;;;14.63;13.63;;;16.50;41.60;;;;;;5083267;28;20439;-53
2022/10/31 21:36:03;;;;;;;17.03;15.63;;;16.50;41.20;;;;;;5085753;28;20779;-49
2022/10/31 21:38:29;;;;;;;16.90;15.30;;;16.40;41.90;;;;;;5086116;28;20890;-49
2022/10/31 21:41:08;;;;;;;17.73;16.37;;;16.30;42.50;;;;;;5066708;28;20466;-51
2022/10/31 21:43:36;;;;;;;16.90;15.40;;;16.10;43.10;;;;;;5064729;28;20665;-52
2022/10/31 21:46:22;;;;;;;17.47;15.63;;;15.90;44.00;;;;;;5064312;28;20412;-51
2022/10/31 21:48:48;;;;;;;16.67;15.20;;;16.00;43.50;;;;;;5066630;28;20408;-49
2022/10/31 21:51:23;;;;;;;13.87;12.97;;;16.10;43.40;;;;;;5063692;28;20926;-54
2022/10/31 21:56:34;;;;;;;14.97;13.57;;;16.20;42.50;;;;;;5083284;28;20416;-50
2022/10/31 21:59:00;;;;;;;17.80;14.63;;;16.10;42.90;;;;;;5067259;28;20412;-52
2022/10/31 22:01:27;;;;;;;14.83;13.80;;;16.00;43.10;;;;;;5066892;28;20416;-52
2022/10/31 22:03:53;;;;;;;14.10;13.00;;;16.00;43.40;;;;;;5064731;28;20210;-51
2022/10/31 22:06:19;;;;;;;15.13;13.90;;;16.10;43.70;;;;;;5071229;28;20461;-55
2022/10/31 22:08:45;;;;;;;16.40;14.90;;;16.20;43.10;;;;;;5084067;28;20182;-53
2022/10/31 22:11:15;;;;;;;15.30;14.27;;;16.10;43.00;;;;;;5079192;28;20434;-54
2022/10/31 22:13:43;;;;;;;14.57;13.43;;;16.20;43.20;;;;;;5087763;28;20821;-51
2022/10/31 22:16:14;;;;;;;15.00;13.80;;;16.00;43.20;;;;;;5092129;28;20888;-53
2022/10/31 22:18:40;;;;;;;15.80;14.57;;;16.10;43.20;;;;;;5094852;28;20511;-54
2022/10/31 22:21:12;;;;;;;14.50;13.33;;;16.20;42.70;;;;;;5078599;28;20432;-52
2022/10/31 22:23:38;;;;;;;16.77;15.30;;;16.30;43.00;;;;;;5087595;28;20985;-54
2022/10/31 22:26:05;;;;;;;15.73;14.33;;;16.20;42.50;;;;;;5074201;28;20466;-51
2022/10/31 22:28:32;;;;;;;15.70;14.37;;;16.10;43.00;;;;;;5067449;28;20843;-54
2022/10/31 22:30:58;;;;;;;14.97;13.70;;;16.10;43.20;;;;;;5077824;28;20463;-55
2022/10/31 22:33:24;;;;;;;15.47;14.00;;;16.10;43.20;;;;;;5081816;28;20424;-54
2022/10/31 22:35:50;;;;;;;15.40;14.30;;;16.20;42.80;;;;;;5079187;28;20892;-54
2022/10/31 22:38:16;;;;;;;15.50;14.30;;;16.20;42.50;;;;;;5064623;28;20470;-54
2022/10/31 22:40:41;;;;;;;15.20;13.77;;;16.20;42.60;;;;;;5067360;28;20186;-48
2022/10/31 22:43:07;;;;;;;14.70;13.60;;;16.30;42.50;;;;;;5067533;28;20229;-48
2022/10/31 22:45:33;;;;;;;14.57;13.40;;;16.30;42.30;;;;;;5068237;28;20174;-49
2022/10/31 22:47:59;;;;;;;15.27;14.27;;;16.30;42.30;;;;;;5068667;28;21022;-47
2022/10/31 22:50:24;;;;;;;15.10;14.00;;;16.30;41.70;;;;;;5068528;28;20200;-50
2022/10/31 22:52:50;;;;;;;15.83;14.47;;;16.10;42.50;;;;;;5069596;28;20635;-50
2022/10/31 22:55:16;;;;;;;15.40;14.27;;;16.00;43.50;;;;;;5067043;28;20179;-51
2022/10/31 22:57:42;;;;;;;15.57;14.33;;;16.00;43.80;;;;;;5068120;28;20220;-50
2022/10/31 23:00:08;;;;;;;15.70;14.60;;;16.10;43.30;;;;;;5066954;28;20466;-50
2022/10/31 23:02:34;;;;;;;16.13;15.13;;;16.20;43.30;;;;;;5066354;28;20547;-50
2022/10/31 23:05:00;;;;;;;16.00;14.80;;;16.10;42.50;;;;;;5067596;28;20419;-54
2022/10/31 23:07:26;;;;;;;17.07;15.67;;;15.80;43.90;;;;;;5066852;28;20417;-51
2022/10/31 23:09:52;;;;;;;16.23;14.97;;;15.80;44.60;;;;;;5068333;28;20548;-51
2022/10/31 23:15:02;;;;;;;15.87;14.57;;;15.90;44.30;;;;;;5085687;28;20972;-51
2022/10/31 23:17:28;;;;;;;15.57;14.40;;;16.00;43.90;;;;;;5066421;28;20455;-52
2022/10/31 23:19:53;;;;;;;16.13;14.70;;;16.10;43.30;;;;;;5067498;28;20460;-55
2022/10/31 23:22:19;;;;;;;16.33;14.80;;;16.10;43.40;;;;;;5066019;28;20313;-54
2022/10/31 23:24:46;;;;;;;16.13;14.50;;;16.20;43.20;;;;;;5067245;28;20183;-51
2022/10/31 23:27:11;;;;;;;17.40;15.97;;;16.20;43.00;;;;;;5066876;28;20569;-53
2022/10/31 23:29:42;;;;;;;19.67;17.90;;;16.20;42.60;;;;;;5067762;28;20442;-55
2022/10/31 23:32:13;;;;;;;16.50;15.30;;;16.20;42.70;;;;;;5070166;28;20652;-51
2022/10/31 23:34:39;;;;;;;15.63;14.43;;;16.20;42.50;;;;;;5072397;28;20826;-52
2022/10/31 23:37:05;;;;;;;16.97;15.17;;;16.20;42.70;;;;;;5069721;28;20555;-53
2022/10/31 23:39:30;;;;;;;15.70;14.60;;;15.90;43.30;;;;;;5070813;28;20634;-54
2022/10/31 23:41:56;;;;;;;16.90;15.50;;;15.90;44.30;;;;;;5070904;28;20206;-55
2022/10/31 23:44:22;;;;;;;16.40;15.03;;;15.90;43.70;;;;;;5069096;28;20232;-55
2022/10/31 23:46:47;;;;;;;16.27;15.03;;;16.10;43.50;;;;;;5069721;28;20181;-54
2022/10/31 23:49:13;;;;;;;19.03;15.87;;;16.10;43.30;;;;;;5071140;28;20716;-53
2022/10/31 23:51:39;;;;;;;17.43;15.90;;;16.10;43.10;;;;;;5070096;28;20201;-52
2022/10/31 23:54:04;;;;;;;15.43;14.23;;;16.10;42.70;;;;;;5070179;28;20174;-55
2022/10/31 23:56:30;;;;;;;15.43;14.23;;;16.20;42.70;;;;;;5088483;28;20178;-53
2022/10/31 23:58:55;;;;;;;15.40;14.03;;;16.20;42.80;;;;;;5069483;28;20186;-53
